sensor_id;sensor_type;location;lat;lon;timestamp;pressure;altitude;pressure_sealevel;temperature;humidity
65754;BME280;52488;47.502;18.940;2023-01-31T00:00:19;97645.97;;;1.48;95.70
65754;BME280;52488;47.502;18.940;2023-01-31T00:01:29;97652.78;;;1.41;95.62
65754;BME280;52488;47.502;18.940;2023-01-31T00:02:33;97642.12;;;1.43;95.71
65754;BME280;52488;47.502;18.940;2023-01-31T00:03:38;97643.06;;;1.46;95.46
65754;BME280;52488;47.502;18.940;2023-01-31T00:04:41;97651.19;;;1.46;95.34
65754;BME280;52488;47.502;18.940;2023-01-31T00:05:44;97642.53;;;1.47;95.27
65754;BME280;52488;47.502;18.940;2023-01-31T00:06:48;97633.34;;;1.50;94.97
65754;BME280;52488;47.502;18.940;2023-01-31T00:07:53;97650.09;;;1.49;94.81
65754;BME280;52488;47.502;18.940;2023-01-31T00:08:57;97639.50;;;1.51;94.62
65754;BME280;52488;47.502;18.940;2023-01-31T00:10:02;97636.06;;;1.50;94.65
65754;BME280;52488;47.502;18.940;2023-01-31T00:11:06;97644.50;;;1.47;94.63
65754;BME280;52488;47.502;18.940;2023-01-31T00:12:09;97632.41;;;1.48;94.56
65754;BME280;52488;47.502;18.940;2023-01-31T00:13:12;97645.97;;;1.48;94.34
65754;BME280;52488;47.502;18.940;2023-01-31T00:14:18;97643.25;;;1.48;94.31
65754;BME280;52488;47.502;18.940;2023-01-31T00:15:22;97644.50;;;1.47;94.25
65754;BME280;52488;47.502;18.940;2023-01-31T00:16:25;97650.66;;;1.47;94.26
65754;BME280;52488;47.502;18.940;2023-01-31T00:17:28;97659.22;;;1.59;94.00
65754;BME280;52488;47.502;18.940;2023-01-31T00:18:32;97656.72;;;1.61;93.49
65754;BME280;52488;47.502;18.940;2023-01-31T00:19:35;97655.44;;;1.62;93.50
65754;BME280;52488;47.502;18.940;2023-01-31T00:20:38;97654.19;;;1.63;93.52
65754;BME280;52488;47.502;18.940;2023-01-31T00:21:42;97664.16;;;1.68;93.43
65754;BME280;52488;47.502;18.940;2023-01-31T00:22:47;97657.28;;;1.67;93.29
65754;BME280;52488;47.502;18.940;2023-01-31T00:23:51;97687.66;;;1.73;92.84
65754;BME280;52488;47.502;18.940;2023-01-31T00:24:54;97685.84;;;1.76;92.65
65754;BME280;52488;47.502;18.940;2023-01-31T00:26:18;97701.22;;;1.81;92.12
65754;BME280;52488;47.502;18.940;2023-01-31T00:27:22;97694.94;;;1.86;91.54
65754;BME280;52488;47.502;18.940;2023-01-31T00:28:25;97692.97;;;1.87;91.12
65754;BME280;52488;47.502;18.940;2023-01-31T00:29:28;97694.03;;;1.83;91.60
65754;BME280;52488;47.502;18.940;2023-01-31T00:30:32;97677.44;;;1.87;91.44
65754;BME280;52488;47.502;18.940;2023-01-31T00:31:36;97695.12;;;1.88;91.36
65754;BME280;52488;47.502;18.940;2023-01-31T00:32:40;97686.84;;;1.94;90.95
65754;BME280;52488;47.502;18.940;2023-01-31T00:33:45;97678.94;;;1.96;90.88
65754;BME280;52488;47.502;18.940;2023-01-31T00:34:49;97672.06;;;1.95;90.92
65754;BME280;52488;47.502;18.940;2023-01-31T00:35:52;97686.91;;;2.01;90.43
65754;BME280;52488;47.502;18.940;2023-01-31T00:36:55;97686.69;;;1.99;90.38
65754;BME280;52488;47.502;18.940;2023-01-31T00:38:03;97677.19;;;2.06;89.55
65754;BME280;52488;47.502;18.940;2023-01-31T00:39:07;97673.72;;;2.05;89.70
65754;BME280;52488;47.502;18.940;2023-01-31T00:40:11;97691.25;;;2.04;89.59
65754;BME280;52488;47.502;18.940;2023-01-31T00:41:14;97681.66;;;2.03;89.72
65754;BME280;52488;47.502;18.940;2023-01-31T00:42:17;97684.72;;;2.00;89.92
65754;BME280;52488;47.502;18.940;2023-01-31T00:43:21;97692.13;;;1.99;90.00
65754;BME280;52488;47.502;18.940;2023-01-31T00:44:24;97682.75;;;2.00;89.59
65754;BME280;52488;47.502;18.940;2023-01-31T00:45:27;97679.69;;;2.04;89.46
65754;BME280;52488;47.502;18.940;2023-01-31T00:46:30;97684.03;;;2.07;89.24
65754;BME280;52488;47.502;18.940;2023-01-31T00:47:33;97677.91;;;2.06;88.64
65754;BME280;52488;47.502;18.940;2023-01-31T00:48:38;97678.81;;;2.09;88.21
65754;BME280;52488;47.502;18.940;2023-01-31T00:49:41;97677.37;;;2.08;88.33
65754;BME280;52488;47.502;18.940;2023-01-31T00:50:45;97680.47;;;2.12;87.43
65754;BME280;52488;47.502;18.940;2023-01-31T00:51:48;97669.09;;;2.14;87.58
65754;BME280;52488;47.502;18.940;2023-01-31T00:52:51;97679.19;;;2.13;87.66
65754;BME280;52488;47.502;18.940;2023-01-31T00:53:54;97673.59;;;2.11;87.21
65754;BME280;52488;47.502;18.940;2023-01-31T00:54:58;97688.78;;;2.14;86.80
65754;BME280;52488;47.502;18.940;2023-01-31T00:56:05;97682.13;;;2.23;85.86
65754;BME280;52488;47.502;18.940;2023-01-31T00:57:09;97693.16;;;2.25;85.72
65754;BME280;52488;47.502;18.940;2023-01-31T00:58:12;97686.47;;;2.26;85.78
65754;BME280;52488;47.502;18.940;2023-01-31T00:59:16;97673.06;;;2.20;85.74
65754;BME280;52488;47.502;18.940;2023-01-31T01:00:19;97675.59;;;2.18;86.05
65754;BME280;52488;47.502;18.940;2023-01-31T01:01:26;97664.78;;;2.18;85.77
65754;BME280;52488;47.502;18.940;2023-01-31T01:02:30;97675.06;;;2.20;85.68
65754;BME280;52488;47.502;18.940;2023-01-31T01:03:34;97667.50;;;2.26;84.88
65754;BME280;52488;47.502;18.940;2023-01-31T01:04:38;97662.06;;;2.18;85.04
65754;BME280;52488;47.502;18.940;2023-01-31T01:05:41;97676.34;;;2.19;84.91
65754;BME280;52488;47.502;18.940;2023-01-31T01:06:44;97681.41;;;2.22;84.46
65754;BME280;52488;47.502;18.940;2023-01-31T01:07:49;97674.34;;;2.19;84.32
65754;BME280;52488;47.502;18.940;2023-01-31T01:08:54;97671.09;;;2.21;84.35
65754;BME280;52488;47.502;18.940;2023-01-31T01:09:58;97676.00;;;2.22;84.36
65754;BME280;52488;47.502;18.940;2023-01-31T01:11:11;97690.78;;;2.21;84.58
65754;BME280;52488;47.502;18.940;2023-01-31T01:12:15;97672.19;;;2.18;84.45
65754;BME280;52488;47.502;18.940;2023-01-31T01:13:18;97671.97;;;2.16;84.54
65754;BME280;52488;47.502;18.940;2023-01-31T01:14:21;97678.31;;;2.18;84.41
65754;BME280;52488;47.502;18.940;2023-01-31T01:15:25;97687.34;;;2.21;84.12
65754;BME280;52488;47.502;18.940;2023-01-31T01:16:33;97688.06;;;2.21;84.29
65754;BME280;52488;47.502;18.940;2023-01-31T01:17:38;97687.91;;;2.19;84.10
65754;BME280;52488;47.502;18.940;2023-01-31T01:18:42;97687.50;;;2.15;84.17
65754;BME280;52488;47.502;18.940;2023-01-31T01:19:48;97701.06;;;2.15;84.02
65754;BME280;52488;47.502;18.940;2023-01-31T01:20:51;97695.47;;;2.21;83.30
65754;BME280;52488;47.502;18.940;2023-01-31T01:21:54;97692.06;;;2.20;83.08
65754;BME280;52488;47.502;18.940;2023-01-31T01:22:58;97687.00;;;2.24;82.99
65754;BME280;52488;47.502;18.940;2023-01-31T01:24:01;97693.88;;;2.25;83.05
65754;BME280;52488;47.502;18.940;2023-01-31T01:25:05;97685.22;;;2.27;82.74
65754;BME280;52488;47.502;18.940;2023-01-31T01:26:18;97688.84;;;2.29;82.37
65754;BME280;52488;47.502;18.940;2023-01-31T01:27:21;97703.12;;;2.30;82.38
65754;BME280;52488;47.502;18.940;2023-01-31T01:28:25;97694.06;;;2.27;82.59
65754;BME280;52488;47.502;18.940;2023-01-31T01:29:30;97704.91;;;2.27;82.55
65754;BME280;52488;47.502;18.940;2023-01-31T01:30:33;97700.22;;;2.28;82.19
65754;BME280;52488;47.502;18.940;2023-01-31T01:31:38;97693.53;;;2.29;82.01
65754;BME280;52488;47.502;18.940;2023-01-31T01:32:41;97705.66;;;2.28;82.25
65754;BME280;52488;47.502;18.940;2023-01-31T01:33:45;97711.25;;;2.30;81.92
65754;BME280;52488;47.502;18.940;2023-01-31T01:34:49;97703.66;;;2.28;81.94
65754;BME280;52488;47.502;18.940;2023-01-31T01:35:52;97709.41;;;2.25;82.04
65754;BME280;52488;47.502;18.940;2023-01-31T01:36:56;97700.38;;;2.22;82.21
65754;BME280;52488;47.502;18.940;2023-01-31T01:37:59;97712.81;;;2.18;82.40
65754;BME280;52488;47.502;18.940;2023-01-31T01:39:05;97715.00;;;2.19;82.43
65754;BME280;52488;47.502;18.940;2023-01-31T01:40:11;97708.31;;;2.20;82.33
65754;BME280;52488;47.502;18.940;2023-01-31T01:41:14;97718.09;;;2.23;82.24
65754;BME280;52488;47.502;18.940;2023-01-31T01:42:23;97719.88;;;2.21;82.22
65754;BME280;52488;47.502;18.940;2023-01-31T01:43:51;97709.03;;;2.21;81.96
65754;BME280;52488;47.502;18.940;2023-01-31T01:44:58;97719.53;;;2.24;81.77
65754;BME280;52488;47.502;18.940;2023-01-31T01:46:02;97715.94;;;2.29;81.68
65754;BME280;52488;47.502;18.940;2023-01-31T01:47:19;97722.09;;;2.30;81.44
65754;BME280;52488;47.502;18.940;2023-01-31T01:48:24;97719.94;;;2.28;81.74
65754;BME280;52488;47.502;18.940;2023-01-31T01:49:33;97722.44;;;2.26;81.82
65754;BME280;52488;47.502;18.940;2023-01-31T01:50:45;97724.09;;;2.29;81.76
65754;BME280;52488;47.502;18.940;2023-01-31T01:51:51;97720.28;;;2.32;81.53
65754;BME280;52488;47.502;18.940;2023-01-31T01:52:59;97730.41;;;2.32;81.44
65754;BME280;52488;47.502;18.940;2023-01-31T01:54:07;97735.47;;;2.28;81.72
65754;BME280;52488;47.502;18.940;2023-01-31T01:55:16;97712.53;;;2.29;81.48
65754;BME280;52488;47.502;18.940;2023-01-31T01:56:26;97716.84;;;2.32;81.18
65754;BME280;52488;47.502;18.940;2023-01-31T01:57:37;97711.44;;;2.32;81.20
65754;BME280;52488;47.502;18.940;2023-01-31T01:58:49;97715.41;;;2.31;81.28
65754;BME280;52488;47.502;18.940;2023-01-31T02:00:07;97718.31;;;2.33;81.30
65754;BME280;52488;47.502;18.940;2023-01-31T02:01:13;97717.41;;;2.30;81.09
65754;BME280;52488;47.502;18.940;2023-01-31T02:02:18;97714.50;;;2.28;81.43
65754;BME280;52488;47.502;18.940;2023-01-31T02:03:22;97726.78;;;2.29;81.43
65754;BME280;52488;47.502;18.940;2023-01-31T02:04:30;97725.72;;;2.32;80.82
65754;BME280;52488;47.502;18.940;2023-01-31T02:05:45;97725.53;;;2.30;80.98
65754;BME280;52488;47.502;18.940;2023-01-31T02:06:49;97726.25;;;2.31;81.22
65754;BME280;52488;47.502;18.940;2023-01-31T02:07:55;97720.84;;;2.31;80.98
65754;BME280;52488;47.502;18.940;2023-01-31T02:09:00;97715.94;;;2.29;80.98
65754;BME280;52488;47.502;18.940;2023-01-31T02:10:23;97717.94;;;2.29;81.10
65754;BME280;52488;47.502;18.940;2023-01-31T02:11:30;97713.25;;;2.29;81.22
65754;BME280;52488;47.502;18.940;2023-01-31T02:12:34;97725.16;;;2.26;81.10
65754;BME280;52488;47.502;18.940;2023-01-31T02:13:39;97719.53;;;2.24;81.22
65754;BME280;52488;47.502;18.940;2023-01-31T02:14:45;97729.28;;;2.27;81.03
65754;BME280;52488;47.502;18.940;2023-01-31T02:15:49;97739.41;;;2.27;80.93
65754;BME280;52488;47.502;18.940;2023-01-31T02:16:52;97744.31;;;2.28;81.06
65754;BME280;52488;47.502;18.940;2023-01-31T02:17:56;97731.50;;;2.29;80.96
65754;BME280;52488;47.502;18.940;2023-01-31T02:19:00;97734.72;;;2.27;80.99
65754;BME280;52488;47.502;18.940;2023-01-31T02:22:00;97737.97;;;2.26;81.18
65754;BME280;52488;47.502;18.940;2023-01-31T02:28:40;97767.94;;;2.20;81.87
65754;BME280;52488;47.502;18.940;2023-01-31T02:30:12;97755.31;;;2.23;81.77
65754;BME280;52488;47.502;18.940;2023-01-31T02:41:14;97770.16;;;2.29;80.74
65754;BME280;52488;47.502;18.940;2023-01-31T02:42:32;97774.66;;;2.27;80.39
65754;BME280;52488;47.502;18.940;2023-01-31T02:43:51;97774.28;;;2.23;80.55
65754;BME280;52488;47.502;18.940;2023-01-31T02:45:47;97780.94;;;2.22;80.77
65754;BME280;52488;47.502;18.940;2023-01-31T02:48:53;97793.19;;;2.15;80.87
65754;BME280;52488;47.502;18.940;2023-01-31T02:50:13;97788.34;;;2.21;80.75
65754;BME280;52488;47.502;18.940;2023-01-31T02:51:24;97781.31;;;2.18;80.78
65754;BME280;52488;47.502;18.940;2023-01-31T02:53:51;97785.47;;;2.19;80.75
65754;BME280;52488;47.502;18.940;2023-01-31T02:56:40;97801.31;;;2.15;80.95
65754;BME280;52488;47.502;18.940;2023-01-31T02:57:48;97793.41;;;2.17;80.88
65754;BME280;52488;47.502;18.940;2023-01-31T02:59:03;97798.28;;;2.19;80.78
65754;BME280;52488;47.502;18.940;2023-01-31T03:00:09;97806.56;;;2.13;81.04
65754;BME280;52488;47.502;18.940;2023-01-31T03:01:16;97794.06;;;2.10;81.37
65754;BME280;52488;47.502;18.940;2023-01-31T03:02:22;97805.16;;;2.20;80.89
65754;BME280;52488;47.502;18.940;2023-01-31T03:03:29;97806.75;;;2.15;80.92
65754;BME280;52488;47.502;18.940;2023-01-31T03:04:34;97804.97;;;2.18;80.82
65754;BME280;52488;47.502;18.940;2023-01-31T03:05:38;97794.84;;;2.18;80.71
65754;BME280;52488;47.502;18.940;2023-01-31T03:07:15;97805.84;;;2.12;81.27
65754;BME280;52488;47.502;18.940;2023-01-31T03:08:19;97798.25;;;2.11;81.38
65754;BME280;52488;47.502;18.940;2023-01-31T03:09:38;97805.47;;;2.16;80.90
65754;BME280;52488;47.502;18.940;2023-01-31T03:11:03;97808.72;;;2.15;80.98
65754;BME280;52488;47.502;18.940;2023-01-31T03:12:26;97810.19;;;2.16;81.01
65754;BME280;52488;47.502;18.940;2023-01-31T03:13:50;97805.84;;;2.12;81.10
65754;BME280;52488;47.502;18.940;2023-01-31T03:16:27;97810.38;;;2.18;80.71
65754;BME280;52488;47.502;18.940;2023-01-31T03:18:20;97815.28;;;2.19;80.46
65754;BME280;52488;47.502;18.940;2023-01-31T03:21:06;97825.00;;;2.15;80.92
65754;BME280;52488;47.502;18.940;2023-01-31T03:22:14;97832.06;;;2.18;80.77
65754;BME280;52488;47.502;18.940;2023-01-31T03:23:24;97823.06;;;2.23;80.18
65754;BME280;52488;47.502;18.940;2023-01-31T03:24:32;97814.59;;;2.26;79.73
65754;BME280;52488;47.502;18.940;2023-01-31T03:25:37;97820.00;;;2.26;79.80
65754;BME280;52488;47.502;18.940;2023-01-31T03:26:41;97830.47;;;2.22;79.89
65754;BME280;52488;47.502;18.940;2023-01-31T03:27:55;97824.53;;;2.24;79.82
65754;BME280;52488;47.502;18.940;2023-01-31T03:29:01;97825.97;;;2.25;79.67
65754;BME280;52488;47.502;18.940;2023-01-31T03:30:14;97829.41;;;2.25;79.56
65754;BME280;52488;47.502;18.940;2023-01-31T03:31:36;97832.28;;;2.27;79.57
65754;BME280;52488;47.502;18.940;2023-01-31T03:32:49;97816.56;;;2.26;79.66
65754;BME280;52488;47.502;18.940;2023-01-31T03:34:02;97827.22;;;2.24;79.81
65754;BME280;52488;47.502;18.940;2023-01-31T03:35:06;97822.84;;;2.21;79.87
65754;BME280;52488;47.502;18.940;2023-01-31T03:36:35;97823.94;;;2.18;79.95
65754;BME280;52488;47.502;18.940;2023-01-31T03:37:54;97830.81;;;2.19;80.04
65754;BME280;52488;47.502;18.940;2023-01-31T03:41:26;97837.81;;;2.14;80.15
65754;BME280;52488;47.502;18.940;2023-01-31T03:45:12;97836.44;;;2.00;80.69
65754;BME280;52488;47.502;18.940;2023-01-31T03:46:26;97842.94;;;1.97;81.03
65754;BME280;52488;47.502;18.940;2023-01-31T03:47:41;97849.38;;;1.94;81.15
65754;BME280;52488;47.502;18.940;2023-01-31T03:48:49;97841.47;;;1.96;81.08
65754;BME280;52488;47.502;18.940;2023-01-31T03:49:57;97851.91;;;1.92;81.12
65754;BME280;52488;47.502;18.940;2023-01-31T03:51:05;97845.03;;;1.91;81.14
65754;BME280;52488;47.502;18.940;2023-01-31T03:52:10;97852.03;;;1.86;81.31
65754;BME280;52488;47.502;18.940;2023-01-31T03:53:21;97848.44;;;1.83;81.49
65754;BME280;52488;47.502;18.940;2023-01-31T03:54:29;97841.75;;;1.84;81.56
65754;BME280;52488;47.502;18.940;2023-01-31T03:55:38;97842.13;;;1.89;81.23
65754;BME280;52488;47.502;18.940;2023-01-31T03:56:47;97847.88;;;1.85;81.12
65754;BME280;52488;47.502;18.940;2023-01-31T03:57:54;97846.44;;;1.84;81.36
65754;BME280;52488;47.502;18.940;2023-01-31T03:59:06;97847.47;;;1.81;81.44
65754;BME280;52488;47.502;18.940;2023-01-31T04:00:13;97858.00;;;1.84;81.41
65754;BME280;52488;47.502;18.940;2023-01-31T04:01:19;97858.72;;;1.85;81.24
65754;BME280;52488;47.502;18.940;2023-01-31T04:02:32;97869.03;;;1.87;81.20
65754;BME280;52488;47.502;18.940;2023-01-31T04:03:40;97862.69;;;1.84;81.19
65754;BME280;52488;47.502;18.940;2023-01-31T04:04:58;97856.56;;;1.83;81.22
65754;BME280;52488;47.502;18.940;2023-01-31T04:06:04;97867.87;;;1.82;81.27
65754;BME280;52488;47.502;18.940;2023-01-31T04:07:09;97858.50;;;1.83;81.21
65754;BME280;52488;47.502;18.940;2023-01-31T04:08:12;97854.34;;;1.82;81.48
65754;BME280;52488;47.502;18.940;2023-01-31T04:09:16;97865.91;;;1.82;81.39
65754;BME280;52488;47.502;18.940;2023-01-31T04:10:20;97852.72;;;1.79;81.41
65754;BME280;52488;47.502;18.940;2023-01-31T04:11:25;97861.34;;;1.77;81.60
65754;BME280;52488;47.502;18.940;2023-01-31T04:12:29;97855.06;;;1.82;81.59
65754;BME280;52488;47.502;18.940;2023-01-31T04:13:32;97864.88;;;1.85;81.43
65754;BME280;52488;47.502;18.940;2023-01-31T04:14:35;97871.19;;;1.88;81.30
65754;BME280;52488;47.502;18.940;2023-01-31T04:15:38;97875.69;;;1.85;81.65
65754;BME280;52488;47.502;18.940;2023-01-31T04:16:42;97867.16;;;1.81;81.90
65754;BME280;52488;47.502;18.940;2023-01-31T04:17:45;97856.56;;;1.83;82.06
65754;BME280;52488;47.502;18.940;2023-01-31T04:18:49;97875.28;;;1.81;82.14
65754;BME280;52488;47.502;18.940;2023-01-31T04:19:54;97874.16;;;1.77;82.46
65754;BME280;52488;47.502;18.940;2023-01-31T04:20:57;97876.38;;;1.78;82.66
65754;BME280;52488;47.502;18.940;2023-01-31T04:22:01;97873.13;;;1.80;82.78
65754;BME280;52488;47.502;18.940;2023-01-31T04:23:04;97872.59;;;1.81;82.91
65754;BME280;52488;47.502;18.940;2023-01-31T04:24:07;97873.53;;;1.84;83.00
65754;BME280;52488;47.502;18.940;2023-01-31T04:25:11;97873.00;;;1.85;83.14
65754;BME280;52488;47.502;18.940;2023-01-31T04:26:15;97863.72;;;1.81;83.43
65754;BME280;52488;47.502;18.940;2023-01-31T04:27:18;97879.97;;;1.81;83.66
65754;BME280;52488;47.502;18.940;2023-01-31T04:28:21;97889.25;;;1.85;83.64
65754;BME280;52488;47.502;18.940;2023-01-31T04:29:24;97885.09;;;1.84;83.85
65754;BME280;52488;47.502;18.940;2023-01-31T04:30:28;97878.00;;;1.81;84.12
65754;BME280;52488;47.502;18.940;2023-01-31T04:31:31;97883.63;;;1.83;84.28
65754;BME280;52488;47.502;18.940;2023-01-31T04:32:34;97879.66;;;1.84;84.57
65754;BME280;52488;47.502;18.940;2023-01-31T04:33:38;97877.69;;;1.85;84.63
65754;BME280;52488;47.502;18.940;2023-01-31T04:34:41;97889.06;;;1.83;84.73
65754;BME280;52488;47.502;18.940;2023-01-31T04:35:44;97883.28;;;1.87;84.84
65754;BME280;52488;47.502;18.940;2023-01-31T04:36:47;97898.09;;;1.86;84.89
65754;BME280;52488;47.502;18.940;2023-01-31T04:37:50;97893.41;;;1.87;84.87
65754;BME280;52488;47.502;18.940;2023-01-31T04:38:54;97890.16;;;1.88;85.00
65754;BME280;52488;47.502;18.940;2023-01-31T04:39:58;97891.94;;;1.85;85.24
65754;BME280;52488;47.502;18.940;2023-01-31T04:41:01;97898.69;;;1.92;85.25
65754;BME280;52488;47.502;18.940;2023-01-31T04:42:04;97888.38;;;1.91;85.37
65754;BME280;52488;47.502;18.940;2023-01-31T04:43:07;97900.47;;;1.90;85.60
65754;BME280;52488;47.502;18.940;2023-01-31T04:44:11;97915.13;;;1.94;85.64
65754;BME280;52488;47.502;18.940;2023-01-31T04:45:14;97910.06;;;1.91;85.78
65754;BME280;52488;47.502;18.940;2023-01-31T04:46:18;97911.19;;;1.95;85.77
65754;BME280;52488;47.502;18.940;2023-01-31T04:47:21;97903.78;;;1.96;85.93
65754;BME280;52488;47.502;18.940;2023-01-31T04:48:24;97913.37;;;1.97;86.21
65754;BME280;52488;47.502;18.940;2023-01-31T04:49:30;97912.81;;;1.98;86.26
65754;BME280;52488;47.502;18.940;2023-01-31T04:50:34;97906.69;;;1.98;86.56
65754;BME280;52488;47.502;18.940;2023-01-31T04:51:38;97909.53;;;1.92;86.84
65754;BME280;52488;47.502;18.940;2023-01-31T04:52:41;97907.53;;;1.93;87.18
65754;BME280;52488;47.502;18.940;2023-01-31T04:53:44;97906.09;;;1.92;87.45
65754;BME280;52488;47.502;18.940;2023-01-31T04:54:48;97908.38;;;1.88;87.78
65754;BME280;52488;47.502;18.940;2023-01-31T04:55:54;97910.59;;;1.89;88.04
65754;BME280;52488;47.502;18.940;2023-01-31T04:56:58;97891.81;;;1.91;88.21
65754;BME280;52488;47.502;18.940;2023-01-31T04:58:01;97908.06;;;1.91;88.57
65754;BME280;52488;47.502;18.940;2023-01-31T04:59:08;97917.97;;;1.89;88.74
65754;BME280;52488;47.502;18.940;2023-01-31T05:00:11;97907.34;;;1.91;89.13
65754;BME280;52488;47.502;18.940;2023-01-31T05:01:15;97904.97;;;1.87;89.45
65754;BME280;52488;47.502;18.940;2023-01-31T05:02:18;97895.56;;;1.88;89.88
65754;BME280;52488;47.502;18.940;2023-01-31T05:03:21;97911.81;;;1.88;90.19
65754;BME280;52488;47.502;18.940;2023-01-31T05:04:25;97906.75;;;1.84;90.61
65754;BME280;52488;47.502;18.940;2023-01-31T05:05:28;97900.06;;;1.85;91.05
65754;BME280;52488;47.502;18.940;2023-01-31T05:06:31;97911.34;;;1.76;91.67
65754;BME280;52488;47.502;18.940;2023-01-31T05:07:35;97897.09;;;1.76;92.12
65754;BME280;52488;47.502;18.940;2023-01-31T05:08:38;97904.16;;;1.79;92.17
65754;BME280;52488;47.502;18.940;2023-01-31T05:09:41;97899.47;;;1.79;92.23
65754;BME280;52488;47.502;18.940;2023-01-31T05:10:45;97907.38;;;1.77;92.45
65754;BME280;52488;47.502;18.940;2023-01-31T05:11:48;97907.19;;;1.75;92.50
65754;BME280;52488;47.502;18.940;2023-01-31T05:12:51;97904.50;;;1.75;92.71
65754;BME280;52488;47.502;18.940;2023-01-31T05:13:54;97906.47;;;1.75;92.66
65754;BME280;52488;47.502;18.940;2023-01-31T05:14:57;97902.72;;;1.78;92.48
65754;BME280;52488;47.502;18.940;2023-01-31T05:16:00;97899.47;;;1.79;92.07
65754;BME280;52488;47.502;18.940;2023-01-31T05:17:04;97891.75;;;1.83;91.79
65754;BME280;52488;47.502;18.940;2023-01-31T05:18:08;97904.44;;;1.89;91.57
65754;BME280;52488;47.502;18.940;2023-01-31T05:19:15;97899.53;;;1.87;91.31
65754;BME280;52488;47.502;18.940;2023-01-31T05:20:19;97910.72;;;1.83;91.30
65754;BME280;52488;47.502;18.940;2023-01-31T05:21:22;97901.66;;;1.81;91.12
65754;BME280;52488;47.502;18.940;2023-01-31T05:22:26;97914.66;;;1.82;91.18
65754;BME280;52488;47.502;18.940;2023-01-31T05:23:30;97913.75;;;1.80;91.11
65754;BME280;52488;47.502;18.940;2023-01-31T05:24:34;97928.53;;;1.79;91.08
65754;BME280;52488;47.502;18.940;2023-01-31T05:25:38;97924.56;;;1.80;90.92
65754;BME280;52488;47.502;18.940;2023-01-31T05:26:42;97913.03;;;1.79;90.83
65754;BME280;52488;47.502;18.940;2023-01-31T05:27:45;97910.09;;;1.77;90.62
65754;BME280;52488;47.502;18.940;2023-01-31T05:28:48;97911.75;;;1.80;90.62
65754;BME280;52488;47.502;18.940;2023-01-31T05:29:52;97907.47;;;1.85;90.29
65754;BME280;52488;47.502;18.940;2023-01-31T05:31:01;97898.22;;;1.80;90.00
65754;BME280;52488;47.502;18.940;2023-01-31T05:32:05;97915.00;;;1.79;89.87
65754;BME280;52488;47.502;18.940;2023-01-31T05:33:09;97916.12;;;1.83;89.69
65754;BME280;52488;47.502;18.940;2023-01-31T05:34:12;97910.31;;;1.79;89.60
65754;BME280;52488;47.502;18.940;2023-01-31T05:35:18;97915.00;;;1.79;89.68
65754;BME280;52488;47.502;18.940;2023-01-31T05:36:21;97907.38;;;1.77;89.57
65754;BME280;52488;47.502;18.940;2023-01-31T05:37:25;97914.28;;;1.78;89.42
65754;BME280;52488;47.502;18.940;2023-01-31T05:38:28;97920.53;;;1.73;89.41
65754;BME280;52488;47.502;18.940;2023-01-31T05:39:35;97913.16;;;1.74;89.40
65754;BME280;52488;47.502;18.940;2023-01-31T05:40:38;97907.72;;;1.74;89.45
65754;BME280;52488;47.502;18.940;2023-01-31T05:41:42;97913.47;;;1.70;89.37
65754;BME280;52488;47.502;18.940;2023-01-31T05:42:49;97912.13;;;1.64;89.61
65754;BME280;52488;47.502;18.940;2023-01-31T05:43:55;97910.34;;;1.66;89.47
65754;BME280;52488;47.502;18.940;2023-01-31T05:44:59;97908.91;;;1.65;89.05
65754;BME280;52488;47.502;18.940;2023-01-31T05:46:03;97904.94;;;1.66;88.88
65754;BME280;52488;47.502;18.940;2023-01-31T05:47:06;97907.63;;;1.66;88.50
65754;BME280;52488;47.502;18.940;2023-01-31T05:48:10;97907.97;;;1.63;88.46
65754;BME280;52488;47.502;18.940;2023-01-31T05:49:13;97920.97;;;1.64;88.05
65754;BME280;52488;47.502;18.940;2023-01-31T05:50:17;97907.13;;;1.68;87.45
65754;BME280;52488;47.502;18.940;2023-01-31T05:51:21;97909.84;;;1.68;87.42
65754;BME280;52488;47.502;18.940;2023-01-31T05:52:28;97922.66;;;1.67;87.21
65754;BME280;52488;47.502;18.940;2023-01-31T05:53:31;97917.97;;;1.68;86.82
65754;BME280;52488;47.502;18.940;2023-01-31T05:54:34;97921.94;;;1.67;86.55
65754;BME280;52488;47.502;18.940;2023-01-31T05:55:37;97914.72;;;1.69;86.40
65754;BME280;52488;47.502;18.940;2023-01-31T05:56:41;97927.72;;;1.71;86.15
65754;BME280;52488;47.502;18.940;2023-01-31T05:57:44;97909.44;;;1.64;86.37
65754;BME280;52488;47.502;18.940;2023-01-31T05:58:49;97906.19;;;1.65;86.14
65754;BME280;52488;47.502;18.940;2023-01-31T05:59:52;97924.94;;;1.63;86.23
65754;BME280;52488;47.502;18.940;2023-01-31T06:00:56;97913.94;;;1.61;85.72
65754;BME280;52488;47.502;18.940;2023-01-31T06:01:59;97906.91;;;1.66;85.25
65754;BME280;52488;47.502;18.940;2023-01-31T06:03:02;97914.53;;;1.67;85.24
65754;BME280;52488;47.502;18.940;2023-01-31T06:04:05;97917.75;;;1.66;85.19
65754;BME280;52488;47.502;18.940;2023-01-31T06:05:09;97907.50;;;1.72;84.31
65754;BME280;52488;47.502;18.940;2023-01-31T06:06:14;97909.19;;;1.75;83.70
65754;BME280;52488;47.502;18.940;2023-01-31T06:07:17;97911.16;;;1.74;83.80
65754;BME280;52488;47.502;18.940;2023-01-31T06:08:20;97912.09;;;1.77;83.40
65754;BME280;52488;47.502;18.940;2023-01-31T06:09:24;97917.00;;;1.78;83.31
65754;BME280;52488;47.502;18.940;2023-01-31T06:10:27;97913.16;;;1.74;83.47
65754;BME280;52488;47.502;18.940;2023-01-31T06:11:30;97914.59;;;1.75;83.02
65754;BME280;52488;47.502;18.940;2023-01-31T06:12:33;97917.31;;;1.75;82.95
65754;BME280;52488;47.502;18.940;2023-01-31T06:13:37;97924.69;;;1.74;82.72
65754;BME280;52488;47.502;18.940;2023-01-31T06:14:40;97915.84;;;1.74;82.50
65754;BME280;52488;47.502;18.940;2023-01-31T06:15:44;97907.91;;;1.76;82.56
65754;BME280;52488;47.502;18.940;2023-01-31T06:16:47;97912.81;;;1.77;81.93
65754;BME280;52488;47.502;18.940;2023-01-31T06:17:50;97920.41;;;1.79;81.80
65754;BME280;52488;47.502;18.940;2023-01-31T06:18:53;97919.34;;;1.82;81.28
65754;BME280;52488;47.502;18.940;2023-01-31T06:19:59;97917.19;;;1.80;81.28
65754;BME280;52488;47.502;18.940;2023-01-31T06:21:02;97929.16;;;1.85;81.15